EST,Max TemperatureF,Mean TemperatureF,Min TemperatureF,Max Dew PointF,MeanDew PointF,Min DewpointF,Max Humidity, Mean Humidity, Min Humidity, Max Sea Level PressureIn, Mean Sea Level PressureIn, Min Sea Level PressureIn, Max VisibilityMiles, Mean VisibilityMiles, Min VisibilityMiles, Max Wind SpeedMPH, Mean Wind SpeedMPH, Max Gust SpeedMPH,PrecipitationIn, CloudCover, Events, WindDirDegrees
2013-2-1,32,26,21,30,18,8,100,67,47,30.40,30.06,29.86,10,9,0,25,6,39,0.01,4,Snow,296
2013-2-2,32,23,16,28,14,8,100,71,44,30.42,30.31,30.06,10,9,2,14,8,20,0.01,2,Snow,279
2013-2-3,37,28,19,31,25,19,100,92,60,30.05,29.96,29.88,10,7,0,15,1,23,0.01,4,Fog,322
2013-2-4,51,38,24,32,20,12,89,66,26,30.16,30.04,29.95,10,10,10,22,13,30,0.00,4,,291
2013-2-5,42,36,28,32,30,28,100,84,65,29.97,29.93,29.90,10,10,5,8,3,,0.00,4,,222
2013-2-6,44,36,27,34,29,24,100,87,49,30.40,30.14,29.97,10,7,4,17,2,23,0.00,3,,355
2013-2-7,41,33,25,32,26,23,96,87,61,30.48,30.39,30.24,10,10,10,12,2,16,0.00,2,,83
2013-2-8,42,38,34,41,35,28,100,94,73,30.24,29.98,29.72,10,7,2,25,9,40,0.15,7,Rain,26
2013-2-9,37,32,28,27,22,19,73,66,52,30.41,30.14,29.90,10,10,10,33,21,41,0.00,3,Snow,342
2013-2-10,42,32,21,31,21,14,93,70,36,30.54,30.44,30.33,10,10,10,9,4,,0.00,1,,116
2013-2-11,55,46,36,55,44,32,100,94,78,30.33,30.03,29.75,10,8,2,17,8,22,0.09,6,Rain,198
2013-2-12,53,46,38,46,35,30,100,74,41,30.01,29.94,29.82,10,10,10,9,5,,0.00,1,,342
2013-2-13,48,40,33,39,32,28,100,83,58,30.01,29.86,29.68,10,8,2,10,6,,0.04,4,Rain-Snow,70
2013-2-14,50,41,32,36,33,30,100,89,47,30.08,29.96,29.78,10,6,2,9,5,,0.00,2,Rain,304
2013-2-15,60,46,32,39,35,32,100,85,42,30.08,30.04,29.95,10,8,4,14,6,24,0.00,1,,212
2013-2-16,38,35,32,37,33,22,100,94,65,30.05,29.95,29.82,10,9,2,12,7,18,0.00,6,Rain-Snow,4
2013-2-17,35,30,25,30,16,10,81,58,44,30.20,29.94,29.82,10,10,2,28,13,36,0.00,2,Snow,339
2013-2-18,39,30,22,28,13,8,78,54,33,30.41,30.30,30.21,10,10,10,25,15,33,0.00,0,,291
2013-2-19,44,39,34,45,32,26,100,79,64,30.24,30.06,29.80,10,10,5,17,10,23,0.00,2,Rain,212
2013-2-20,37,32,26,31,20,12,82,60,45,30.18,30.00,29.88,10,10,10,20,12,28,0.00,1,,325
2013-2-21,39,32,24,22,16,13,73,61,44,30.34,30.21,30.15,10,10,10,23,13,29,0.00,0,,326
2013-2-22,36,32,28,35,26,19,100,79,64,30.43,30.34,30.26,10,9,5,10,5,,0.00,5,Rain,49
2013-2-23,46,40,34,46,40,35,100,100,100,30.25,30.03,29.82,8,2,1,8,4,,0.01,8,Rain,46
2013-2-24,50,42,33,45,36,24,100,85,46,30.12,29.91,29.82,10,6,1,18,8,28,0.00,5,,353
2013-2-25,46,38,29,30,26,23,97,72,50,30.26,30.19,30.12,10,10,10,13,8,20,0.00,1,,337
2013-2-26,50,38,27,50,35,28,100,96,81,30.27,30.09,29.62,10,8,4,23,4,38,0.18,4,Rain,97
2013-2-27,55,48,42,51,46,37,100,89,58,29.73,29.62,29.52,10,6,0,15,7,22,0.00,7,Fog-Rain,239
2013-2-28,48,42,37,41,36,28,100,79,46,29.75,29.70,29.65,10,10,4,16,4,23,0.05,6,Rain,318